TimeCST,TemperatureF,Dew PointF,Humidity,Sea Level PressureIn,VisibilityMPH,Wind Direction,Wind SpeedMPH,Gust SpeedMPH,PrecipitationIn,Events,Conditions,WindDirDegrees,DateUTC
12:53 AM,24.1,17.1,75,30.36,10.0,NW,12.7,-,N/A,,Overcast,320,2013-01-03 06:53:00
1:53 AM,24.1,17.1,75,30.37,10.0,NNW,11.5,-,N/A,,Overcast,330,2013-01-03 07:53:00
2:53 AM,24.1,17.1,75,30.39,10.0,NNW,12.7,-,N/A,,Overcast,330,2013-01-03 08:53:00
3:53 AM,23.0,17.1,78,30.40,10.0,NW,9.2,-,N/A,,Overcast,320,2013-01-03 09:53:00
4:53 AM,23.0,16.0,74,30.40,10.0,NW,10.4,-,N/A,,Overcast,320,2013-01-03 10:53:00
5:27 AM,21.2,15.8,80,30.31,10.0,NW,8.1,-,N/A,,Overcast,320,2013-01-03 11:27:00
5:53 AM,21.0,16.0,81,30.41,10.0,NW,5.8,-,N/A,,Overcast,320,2013-01-03 11:53:00
6:53 AM,15.1,12.0,88,30.44,10.0,WNW,3.5,-,N/A,,Mostly Cloudy,300,2013-01-03 12:53:00
7:53 AM,10.0,8.1,92,30.46,10.0,NNW,4.6,-,N/A,,Partly Cloudy,330,2013-01-03 13:53:00
8:53 AM,14.0,10.0,84,30.47,10.0,NNW,5.8,-,N/A,,Scattered Clouds,330,2013-01-03 14:53:00
9:53 AM,17.1,12.0,81,30.47,10.0,Calm,Calm,-,N/A,,Clear,0,2013-01-03 15:53:00
10:53 AM,23.0,15.1,72,30.45,10.0,Calm,Calm,-,N/A,,Clear,0,2013-01-03 16:53:00
11:53 AM,26.1,15.1,63,30.42,10.0,West,8.1,-,N/A,,Clear,260,2013-01-03 17:53:00
12:53 PM,26.1,16.0,66,30.39,10.0,SW,11.5,-,N/A,,Clear,220,2013-01-03 18:53:00
1:53 PM,27.0,16.0,63,30.35,10.0,SW,9.2,-,N/A,,Clear,230,2013-01-03 19:53:00
2:53 PM,27.0,14.0,58,30.35,10.0,WSW,11.5,-,N/A,,Clear,240,2013-01-03 20:53:00
3:53 PM,27.0,15.1,61,30.35,10.0,SW,10.4,-,N/A,,Clear,230,2013-01-03 21:53:00
4:53 PM,25.0,15.1,66,30.35,10.0,SW,9.2,-,N/A,,Clear,230,2013-01-03 22:53:00
5:53 PM,21.0,12.0,68,30.35,10.0,WSW,5.8,-,N/A,,Clear,240,2013-01-03 23:53:00
6:53 PM,15.1,9.0,77,30.39,10.0,Calm,Calm,-,N/A,,Clear,0,2013-01-04 00:53:00
7:53 PM,14.0,8.1,77,30.39,10.0,West,5.8,-,N/A,,Clear,260,2013-01-04 01:53:00
8:53 PM,10.0,5.0,80,30.38,10.0,Calm,Calm,-,N/A,,Clear,0,2013-01-04 02:53:00
9:53 PM,10.9,6.1,81,30.37,10.0,Calm,Calm,-,N/A,,Clear,0,2013-01-04 03:53:00
10:53 PM,7.0,3.0,84,30.37,10.0,WNW,5.8,-,N/A,,Clear,290,2013-01-04 04:53:00
11:53 PM,5.0,1.0,84,30.36,10.0,NW,6.9,-,N/A,,Clear,320,2013-01-04 05:53:00